sensor_id;sensor_type;location;lat;lon;timestamp;pressure;altitude;pressure_sealevel;temperature;humidity
12666;BME280;58531;59.050;17.416;2023-08-07T00:01:23;99331.81;;;18.34;100.00
12666;BME280;58531;59.050;17.416;2023-08-07T00:03:50;99310.94;;;18.34;100.00
12666;BME280;58531;59.050;17.416;2023-08-07T00:06:16;99315.59;;;18.34;100.00
12666;BME280;58531;59.050;17.416;2023-08-07T00:08:43;99326.22;;;18.32;100.00
12666;BME280;58531;59.050;17.416;2023-08-07T00:11:10;99309.78;;;18.30;100.00
12666;BME280;58531;59.050;17.416;2023-08-07T00:13:39;99324.03;;;18.30;100.00
12666;BME280;58531;59.050;17.416;2023-08-07T00:16:06;99332.34;;;18.32;100.00
12666;BME280;58531;59.050;17.416;2023-08-07T00:18:32;99339.44;;;18.35;100.00
12666;BME280;58531;59.050;17.416;2023-08-07T00:20:59;99318.75;;;18.38;100.00
12666;BME280;58531;59.050;17.416;2023-08-07T00:23:26;99288.25;;;18.37;100.00
12666;BME280;58531;59.050;17.416;2023-08-07T00:25:53;99235.16;;;18.40;100.00
12666;BME280;58531;59.050;17.416;2023-08-07T00:28:20;99197.28;;;18.40;100.00
12666;BME280;58531;59.050;17.416;2023-08-07T00:30:48;99169.00;;;18.41;100.00
12666;BME280;58531;59.050;17.416;2023-08-07T00:33:15;99153.00;;;18.43;100.00
12666;BME280;58531;59.050;17.416;2023-08-07T00:35:42;99147.06;;;18.44;100.00
12666;BME280;58531;59.050;17.416;2023-08-07T00:38:09;99138.22;;;18.44;100.00
12666;BME280;58531;59.050;17.416;2023-08-07T00:40:36;99122.00;;;18.44;100.00
12666;BME280;58531;59.050;17.416;2023-08-07T00:43:04;99117.31;;;18.44;100.00
12666;BME280;58531;59.050;17.416;2023-08-07T00:45:35;99103.09;;;18.44;100.00
12666;BME280;58531;59.050;17.416;2023-08-07T00:48:05;99092.28;;;18.44;100.00
12666;BME280;58531;59.050;17.416;2023-08-07T00:50:32;99082.72;;;18.43;100.00
12666;BME280;58531;59.050;17.416;2023-08-07T00:52:59;99077.50;;;18.45;100.00
12666;BME280;58531;59.050;17.416;2023-08-07T00:55:28;99047.97;;;18.47;100.00
12666;BME280;58531;59.050;17.416;2023-08-07T00:57:55;99028.09;;;18.44;100.00
12666;BME280;58531;59.050;17.416;2023-08-07T01:00:22;99012.63;;;18.45;100.00
12666;BME280;58531;59.050;17.416;2023-08-07T01:02:50;99002.53;;;18.45;100.00
12666;BME280;58531;59.050;17.416;2023-08-07T01:05:19;99001.81;;;18.45;100.00
12666;BME280;58531;59.050;17.416;2023-08-07T01:07:47;98995.16;;;18.46;100.00
12666;BME280;58531;59.050;17.416;2023-08-07T01:10:17;99015.31;;;18.45;100.00
12666;BME280;58531;59.050;17.416;2023-08-07T01:12:48;99030.28;;;18.46;100.00
12666;BME280;58531;59.050;17.416;2023-08-07T01:15:21;99034.25;;;18.45;100.00
12666;BME280;58531;59.050;17.416;2023-08-07T01:17:51;99035.50;;;18.44;100.00
12666;BME280;58531;59.050;17.416;2023-08-07T01:20:20;99022.50;;;18.42;100.00
12666;BME280;58531;59.050;17.416;2023-08-07T01:22:49;99034.75;;;18.43;100.00
12666;BME280;58531;59.050;17.416;2023-08-07T01:25:16;99026.13;;;18.45;100.00
12666;BME280;58531;59.050;17.416;2023-08-07T01:27:47;99046.31;;;18.44;100.00
12666;BME280;58531;59.050;17.416;2023-08-07T01:30:21;99024.28;;;18.40;100.00
12666;BME280;58531;59.050;17.416;2023-08-07T01:32:56;99014.91;;;18.41;100.00
12666;BME280;58531;59.050;17.416;2023-08-07T01:35:26;99001.91;;;18.39;100.00
12666;BME280;58531;59.050;17.416;2023-08-07T01:37:58;99005.56;;;18.42;100.00
12666;BME280;58531;59.050;17.416;2023-08-07T01:40:27;99008.78;;;18.40;100.00
12666;BME280;58531;59.050;17.416;2023-08-07T01:42:55;99012.22;;;18.41;100.00
12666;BME280;58531;59.050;17.416;2023-08-07T01:45:23;99021.97;;;18.44;100.00
12666;BME280;58531;59.050;17.416;2023-08-07T01:47:50;99009.91;;;18.45;100.00
12666;BME280;58531;59.050;17.416;2023-08-07T01:50:18;99018.03;;;18.45;100.00
12666;BME280;58531;59.050;17.416;2023-08-07T01:52:45;99009.19;;;18.44;100.00
12666;BME280;58531;59.050;17.416;2023-08-07T01:55:14;99004.50;;;18.45;100.00
12666;BME280;58531;59.050;17.416;2023-08-07T01:57:41;99009.19;;;18.44;100.00
12666;BME280;58531;59.050;17.416;2023-08-07T02:00:09;99010.44;;;18.43;100.00
12666;BME280;58531;59.050;17.416;2023-08-07T02:02:37;99026.34;;;18.47;100.00
12666;BME280;58531;59.050;17.416;2023-08-07T02:05:05;99025.28;;;18.50;100.00
12666;BME280;58531;59.050;17.416;2023-08-07T02:07:32;99022.38;;;18.48;100.00
12666;BME280;58531;59.050;17.416;2023-08-07T02:09:59;99040.25;;;18.51;100.00
12666;BME280;58531;59.050;17.416;2023-08-07T02:12:27;99032.16;;;18.51;100.00
12666;BME280;58531;59.050;17.416;2023-08-07T02:14:57;99037.56;;;18.51;100.00
12666;BME280;58531;59.050;17.416;2023-08-07T02:17:24;99027.25;;;18.49;100.00
12666;BME280;58531;59.050;17.416;2023-08-07T02:19:51;99020.59;;;18.50;100.00
12666;BME280;58531;59.050;17.416;2023-08-07T02:22:19;99019.88;;;18.50;100.00
12666;BME280;58531;59.050;17.416;2023-08-07T02:24:46;99013.22;;;18.51;100.00
12666;BME280;58531;59.050;17.416;2023-08-07T02:27:12;99015.94;;;18.51;100.00
12666;BME280;58531;59.050;17.416;2023-08-07T02:29:41;99007.81;;;18.51;100.00
12666;BME280;58531;59.050;17.416;2023-08-07T02:32:08;98999.50;;;18.49;100.00
12666;BME280;58531;59.050;17.416;2023-08-07T02:34:35;99006.88;;;18.48;100.00
12666;BME280;58531;59.050;17.416;2023-08-07T02:37:02;99022.78;;;18.52;100.00
12666;BME280;58531;59.050;17.416;2023-08-07T02:39:29;99025.69;;;18.54;100.00
12666;BME280;58531;59.050;17.416;2023-08-07T02:41:56;99030.03;;;18.57;100.00
12666;BME280;58531;59.050;17.416;2023-08-07T02:44:23;99028.78;;;18.58;100.00
12666;BME280;58531;59.050;17.416;2023-08-07T02:46:51;99018.69;;;18.58;100.00
12666;BME280;58531;59.050;17.416;2023-08-07T02:49:18;99011.31;;;18.59;100.00
12666;BME280;58531;59.050;17.416;2023-08-07T02:51:45;99023.75;;;18.62;100.00
12666;BME280;58531;59.050;17.416;2023-08-07T02:54:12;99031.03;;;18.67;100.00
12666;BME280;58531;59.050;17.416;2023-08-07T02:56:39;99023.66;;;18.67;100.00
12666;BME280;58531;59.050;17.416;2023-08-07T02:59:06;99009.78;;;18.71;100.00
12666;BME280;58531;59.050;17.416;2023-08-07T03:01:33;99001.88;;;18.73;100.00
12666;BME280;58531;59.050;17.416;2023-08-07T03:04:01;99005.81;;;18.72;100.00
12666;BME280;58531;59.050;17.416;2023-08-07T03:06:28;98989.59;;;18.72;100.00
12666;BME280;58531;59.050;17.416;2023-08-07T03:08:55;98991.25;;;18.75;100.00
12666;BME280;58531;59.050;17.416;2023-08-07T03:11:22;98984.59;;;18.76;100.00
12666;BME280;58531;59.050;17.416;2023-08-07T03:13:49;98993.25;;;18.74;100.00
12666;BME280;58531;59.050;17.416;2023-08-07T03:16:16;99013.63;;;18.75;100.00
12666;BME280;58531;59.050;17.416;2023-08-07T03:18:43;99003.00;;;18.77;100.00
12666;BME280;58531;59.050;17.416;2023-08-07T03:21:11;98970.88;;;18.74;100.00
12666;BME280;58531;59.050;17.416;2023-08-07T03:23:38;98972.00;;;18.78;100.00
12666;BME280;58531;59.050;17.416;2023-08-07T03:26:06;98974.50;;;18.76;100.00
12666;BME280;58531;59.050;17.416;2023-08-07T03:28:34;98950.69;;;18.75;100.00
12666;BME280;58531;59.050;17.416;2023-08-07T03:31:01;98935.50;;;18.72;100.00
12666;BME280;58531;59.050;17.416;2023-08-07T03:33:28;98958.59;;;18.73;100.00
12666;BME280;58531;59.050;17.416;2023-08-07T03:35:55;98979.91;;;18.76;100.00
12666;BME280;58531;59.050;17.416;2023-08-07T03:38:24;98976.66;;;18.78;100.00
12666;BME280;58531;59.050;17.416;2023-08-07T03:40:51;98984.59;;;18.76;100.00
12666;BME280;58531;59.050;17.416;2023-08-07T03:43:18;99004.56;;;18.73;100.00
12666;BME280;58531;59.050;17.416;2023-08-07T03:45:44;98996.66;;;18.75;100.00
12666;BME280;58531;59.050;17.416;2023-08-07T03:48:11;99004.06;;;18.74;100.00
12666;BME280;58531;59.050;17.416;2023-08-07T03:50:38;99012.88;;;18.75;100.00
12666;BME280;58531;59.050;17.416;2023-08-07T03:53:06;99006.22;;;18.76;100.00
12666;BME280;58531;59.050;17.416;2023-08-07T03:55:35;99007.16;;;18.78;100.00
12666;BME280;58531;59.050;17.416;2023-08-07T03:58:02;98997.25;;;18.81;100.00
12666;BME280;58531;59.050;17.416;2023-08-07T04:00:29;98993.69;;;18.86;100.00
12666;BME280;58531;59.050;17.416;2023-08-07T04:02:56;98984.50;;;18.89;100.00
12666;BME280;58531;59.050;17.416;2023-08-07T04:05:23;98982.53;;;18.89;100.00
12666;BME280;58531;59.050;17.416;2023-08-07T04:07:50;98986.16;;;18.92;100.00
12666;BME280;58531;59.050;17.416;2023-08-07T04:10:16;98979.50;;;18.93;100.00
12666;BME280;58531;59.050;17.416;2023-08-07T04:12:45;98968.66;;;18.93;100.00
12666;BME280;58531;59.050;17.416;2023-08-07T04:15:12;98958.03;;;18.95;100.00
12666;BME280;58531;59.050;17.416;2023-08-07T04:17:38;98958.03;;;18.95;100.00
12666;BME280;58531;59.050;17.416;2023-08-07T04:20:07;98954.59;;;18.94;100.00
12666;BME280;58531;59.050;17.416;2023-08-07T04:22:34;98957.66;;;18.91;100.00
12666;BME280;58531;59.050;17.416;2023-08-07T04:25:01;98963.38;;;18.87;100.00
12666;BME280;58531;59.050;17.416;2023-08-07T04:27:28;98974.56;;;18.84;100.00
12666;BME280;58531;59.050;17.416;2023-08-07T04:29:57;98974.56;;;18.84;100.00
12666;BME280;58531;59.050;17.416;2023-08-07T04:32:24;98959.25;;;18.86;100.00
12666;BME280;58531;59.050;17.416;2023-08-07T04:34:51;98928.75;;;18.86;100.00
12666;BME280;58531;59.050;17.416;2023-08-07T04:37:18;98929.66;;;18.88;100.00
12666;BME280;58531;59.050;17.416;2023-08-07T04:39:45;98932.91;;;18.87;100.00
12666;BME280;58531;59.050;17.416;2023-08-07T04:42:12;98934.91;;;18.86;100.00
12666;BME280;58531;59.050;17.416;2023-08-07T04:44:39;98933.13;;;18.89;100.00
12666;BME280;58531;59.050;17.416;2023-08-07T04:47:07;98953.50;;;18.90;100.00
12666;BME280;58531;59.050;17.416;2023-08-07T04:49:34;98954.41;;;18.92;100.00
12666;BME280;58531;59.050;17.416;2023-08-07T04:52:01;98975.72;;;18.96;100.00
12666;BME280;58531;59.050;17.416;2023-08-07T04:54:28;98963.47;;;18.95;100.00
12666;BME280;58531;59.050;17.416;2023-08-07T04:56:54;98962.91;;;18.96;100.00
12666;BME280;58531;59.050;17.416;2023-08-07T04:59:21;98975.56;;;19.01;100.00
12666;BME280;58531;59.050;17.416;2023-08-07T05:01:48;98958.28;;;19.04;100.00
12666;BME280;58531;59.050;17.416;2023-08-07T05:04:17;98947.25;;;19.02;100.00
12666;BME280;58531;59.050;17.416;2023-08-07T05:06:43;98921.72;;;19.10;100.00
12666;BME280;58531;59.050;17.416;2023-08-07T05:09:11;98912.53;;;19.13;100.00
12666;BME280;58531;59.050;17.416;2023-08-07T05:11:38;98916.00;;;19.21;100.00
12666;BME280;58531;59.050;17.416;2023-08-07T05:14:04;98883.91;;;19.25;100.00
12666;BME280;58531;59.050;17.416;2023-08-07T05:16:31;98896.56;;;19.30;100.00
12666;BME280;58531;59.050;17.416;2023-08-07T05:18:58;98910.47;;;19.34;100.00
12666;BME280;58531;59.050;17.416;2023-08-07T05:21:26;98897.72;;;19.42;100.00
12666;BME280;58531;59.050;17.416;2023-08-07T05:23:53;98898.28;;;19.56;100.00
12666;BME280;58531;59.050;17.416;2023-08-07T05:26:21;98908.44;;;19.70;100.00
12666;BME280;58531;59.050;17.416;2023-08-07T05:28:47;98912.66;;;19.86;100.00
12666;BME280;58531;59.050;17.416;2023-08-07T05:31:14;98917.38;;;19.93;100.00
12666;BME280;58531;59.050;17.416;2023-08-07T05:33:41;98912.72;;;20.01;100.00
12666;BME280;58531;59.050;17.416;2023-08-07T05:36:08;98897.91;;;20.02;100.00
12666;BME280;58531;59.050;17.416;2023-08-07T05:38:36;98892.66;;;20.04;100.00
12666;BME280;58531;59.050;17.416;2023-08-07T05:41:03;98895.56;;;20.06;100.00
12666;BME280;58531;59.050;17.416;2023-08-07T05:43:30;98902.78;;;20.04;100.00
12666;BME280;58531;59.050;17.416;2023-08-07T05:45:57;98900.09;;;20.11;100.00
12666;BME280;58531;59.050;17.416;2023-08-07T05:48:25;98901.16;;;20.08;100.00
12666;BME280;58531;59.050;17.416;2023-08-07T05:50:52;98909.13;;;20.06;100.00
12666;BME280;58531;59.050;17.416;2023-08-07T05:53:19;98910.88;;;19.96;100.00
12666;BME280;58531;59.050;17.416;2023-08-07T05:55:47;98912.28;;;19.90;100.00
12666;BME280;58531;59.050;17.416;2023-08-07T05:58:14;98910.84;;;19.89;100.00
12666;BME280;58531;59.050;17.416;2023-08-07T06:00:41;98908.50;;;19.93;100.00
12666;BME280;58531;59.050;17.416;2023-08-07T06:03:08;98899.72;;;20.07;100.00
12666;BME280;58531;59.050;17.416;2023-08-07T06:05:35;98888.53;;;20.26;100.00
12666;BME280;58531;59.050;17.416;2023-08-07T06:08:02;98903.38;;;20.39;100.00
12666;BME280;58531;59.050;17.416;2023-08-07T06:10:29;98886.72;;;20.43;100.00
12666;BME280;58531;59.050;17.416;2023-08-07T06:12:57;98896.50;;;20.46;100.00
12666;BME280;58531;59.050;17.416;2023-08-07T06:15:24;98902.09;;;20.63;100.00
12666;BME280;58531;59.050;17.416;2023-08-07T06:17:52;98908.78;;;20.62;100.00
12666;BME280;58531;59.050;17.416;2023-08-07T06:20:19;98899.03;;;20.81;100.00
12666;BME280;58531;59.050;17.416;2023-08-07T06:22:46;98905.13;;;20.97;100.00
12666;BME280;58531;59.050;17.416;2023-08-07T06:25:13;98909.03;;;21.26;100.00
12666;BME280;58531;59.050;17.416;2023-08-07T06:27:40;98896.97;;;21.58;100.00
12666;BME280;58531;59.050;17.416;2023-08-07T06:30:10;98908.47;;;21.81;100.00
12666;BME280;58531;59.050;17.416;2023-08-07T06:32:38;98903.31;;;21.93;100.00
12666;BME280;58531;59.050;17.416;2023-08-07T06:35:06;98910.13;;;22.58;100.00
12666;BME280;58531;59.050;17.416;2023-08-07T06:37:33;98894.63;;;23.01;100.00
12666;BME280;58531;59.050;17.416;2023-08-07T06:40:00;98882.75;;;23.14;100.00
12666;BME280;58531;59.050;17.416;2023-08-07T06:42:28;98884.91;;;23.59;100.00
12666;BME280;58531;59.050;17.416;2023-08-07T06:44:55;98884.19;;;23.15;100.00
12666;BME280;58531;59.050;17.416;2023-08-07T06:47:23;98892.41;;;22.90;100.00
12666;BME280;58531;59.050;17.416;2023-08-07T06:49:50;98893.75;;;22.65;100.00
12666;BME280;58531;59.050;17.416;2023-08-07T06:52:19;98892.16;;;22.38;100.00
12666;BME280;58531;59.050;17.416;2023-08-07T06:54:46;98887.31;;;22.29;100.00
12666;BME280;58531;59.050;17.416;2023-08-07T06:57:14;98869.13;;;22.14;100.00
12666;BME280;58531;59.050;17.416;2023-08-07T06:59:41;98874.50;;;21.65;100.00
12666;BME280;58531;59.050;17.416;2023-08-07T07:02:08;98884.03;;;21.35;100.00
12666;BME280;58531;59.050;17.416;2023-08-07T07:04:36;98891.72;;;21.14;100.00
12666;BME280;58531;59.050;17.416;2023-08-07T07:07:04;98892.47;;;20.92;100.00
12666;BME280;58531;59.050;17.416;2023-08-07T07:09:31;98892.47;;;20.77;100.00
12666;BME280;58531;59.050;17.416;2023-08-07T07:11:59;98882.34;;;20.70;100.00
12666;BME280;58531;59.050;17.416;2023-08-07T07:14:27;98882.19;;;20.75;100.00
12666;BME280;58531;59.050;17.416;2023-08-07T07:16:54;98888.31;;;20.91;100.00
12666;BME280;58531;59.050;17.416;2023-08-07T07:19:21;98870.78;;;20.92;100.00
12666;BME280;58531;59.050;17.416;2023-08-07T07:21:50;98871.84;;;20.89;100.00
12666;BME280;58531;59.050;17.416;2023-08-07T07:24:17;98874.75;;;20.76;100.00
12666;BME280;58531;59.050;17.416;2023-08-07T07:26:44;98872.97;;;20.63;100.00
12666;BME280;58531;59.050;17.416;2023-08-07T07:29:11;98878.59;;;20.58;100.00
12666;BME280;58531;59.050;17.416;2023-08-07T07:31:38;98879.50;;;20.53;100.00
12666;BME280;58531;59.050;17.416;2023-08-07T07:34:05;98871.91;;;20.44;100.00
12666;BME280;58531;59.050;17.416;2023-08-07T07:36:33;98856.34;;;20.44;100.00
12666;BME280;58531;59.050;17.416;2023-08-07T07:39:01;98876.22;;;20.62;100.00
12666;BME280;58531;59.050;17.416;2023-08-07T07:41:28;98876.56;;;20.66;100.00
12666;BME280;58531;59.050;17.416;2023-08-07T07:43:55;98880.91;;;20.69;100.00
12666;BME280;58531;59.050;17.416;2023-08-07T07:46:23;98878.38;;;20.71;100.00
12666;BME280;58531;59.050;17.416;2023-08-07T07:48:50;98874.97;;;20.63;100.00
12666;BME280;58531;59.050;17.416;2023-08-07T07:51:17;98861.22;;;20.46;100.00
12666;BME280;58531;59.050;17.416;2023-08-07T07:53:44;98854.53;;;20.32;100.00
12666;BME280;58531;59.050;17.416;2023-08-07T07:56:13;98866.66;;;20.31;100.00
12666;BME280;58531;59.050;17.416;2023-08-07T07:58:40;98878.75;;;20.30;100.00
12666;BME280;58531;59.050;17.416;2023-08-07T08:01:07;98881.63;;;20.17;100.00
12666;BME280;58531;59.050;17.416;2023-08-07T08:03:34;98873.69;;;20.04;100.00
12666;BME280;58531;59.050;17.416;2023-08-07T08:06:01;98865.72;;;19.99;100.00
12666;BME280;58531;59.050;17.416;2023-08-07T08:08:29;98869.88;;;20.00;100.00
12666;BME280;58531;59.050;17.416;2023-08-07T08:10:59;98881.66;;;20.10;100.00
12666;BME280;58531;59.050;17.416;2023-08-07T08:13:27;98863.94;;;20.16;100.00
12666;BME280;58531;59.050;17.416;2023-08-07T08:15:54;98865.75;;;20.21;100.00
12666;BME280;58531;59.050;17.416;2023-08-07T08:18:21;98855.09;;;20.30;100.00
12666;BME280;58531;59.050;17.416;2023-08-07T08:20:53;98845.50;;;20.37;100.00
12666;BME280;58531;59.050;17.416;2023-08-07T08:23:21;98854.00;;;20.26;100.00
12666;BME280;58531;59.050;17.416;2023-08-07T08:25:48;98881.13;;;20.11;100.00
12666;BME280;58531;59.050;17.416;2023-08-07T08:28:17;98874.72;;;19.86;100.00
12666;BME280;58531;59.050;17.416;2023-08-07T08:30:45;98885.31;;;19.69;100.00
12666;BME280;58531;59.050;17.416;2023-08-07T08:33:13;98861.84;;;19.64;100.00
12666;BME280;58531;59.050;17.416;2023-08-07T08:35:40;98856.59;;;19.66;100.00
12666;BME280;58531;59.050;17.416;2023-08-07T08:38:07;98853.19;;;19.73;100.00
12666;BME280;58531;59.050;17.416;2023-08-07T08:40:35;98852.69;;;19.97;100.00
12666;BME280;58531;59.050;17.416;2023-08-07T08:43:05;98873.16;;;20.13;100.00
12666;BME280;58531;59.050;17.416;2023-08-07T08:45:33;98877.84;;;20.20;100.00
12666;BME280;58531;59.050;17.416;2023-08-07T08:48:04;98874.97;;;20.18;100.00
12666;BME280;58531;59.050;17.416;2023-08-07T08:50:34;98869.00;;;20.12;100.00
12666;BME280;58531;59.050;17.416;2023-08-07T08:53:02;98866.47;;;20.29;100.00
12666;BME280;58531;59.050;17.416;2023-08-07T08:55:30;98853.59;;;20.67;100.00
12666;BME280;58531;59.050;17.416;2023-08-07T08:57:58;98860.63;;;21.00;100.00
12666;BME280;58531;59.050;17.416;2023-08-07T09:00:27;98849.69;;;21.22;100.00
12666;BME280;58531;59.050;17.416;2023-08-07T09:02:55;98853.59;;;21.36;100.00
12666;BME280;58531;59.050;17.416;2023-08-07T09:05:23;98850.19;;;21.67;100.00
12666;BME280;58531;59.050;17.416;2023-08-07T09:07:50;98842.88;;;22.09;100.00
12666;BME280;58531;59.050;17.416;2023-08-07T09:10:18;98833.75;;;22.39;100.00
12666;BME280;58531;59.050;17.416;2023-08-07T09:12:52;98846.56;;;22.63;100.00
12666;BME280;58531;59.050;17.416;2023-08-07T09:15:20;98851.41;;;22.88;100.00
12666;BME280;58531;59.050;17.416;2023-08-07T09:17:49;98847.31;;;22.97;100.00
12666;BME280;58531;59.050;17.416;2023-08-07T09:20:18;98847.56;;;22.91;100.00
12666;BME280;58531;59.050;17.416;2023-08-07T09:22:46;98848.50;;;22.70;100.00
12666;BME280;58531;59.050;17.416;2023-08-07T09:25:14;98850.03;;;22.80;100.00
12666;BME280;58531;59.050;17.416;2023-08-07T09:27:41;98862.44;;;23.07;100.00
12666;BME280;58531;59.050;17.416;2023-08-07T09:30:09;98853.88;;;22.94;100.00
12666;BME280;58531;59.050;17.416;2023-08-07T09:32:37;98857.31;;;22.77;100.00
12666;BME280;58531;59.050;17.416;2023-08-07T09:35:07;98854.81;;;22.55;100.00
12666;BME280;58531;59.050;17.416;2023-08-07T09:37:36;98845.75;;;22.36;100.00
12666;BME280;58531;59.050;17.416;2023-08-07T09:40:07;98856.13;;;22.05;100.00
12666;BME280;58531;59.050;17.416;2023-08-07T09:42:37;98828.97;;;21.98;100.00
12666;BME280;58531;59.050;17.416;2023-08-07T09:45:18;98846.03;;;21.98;100.00
12666;BME280;58531;59.050;17.416;2023-08-07T09:47:47;98847.28;;;21.97;100.00
12666;BME280;58531;59.050;17.416;2023-08-07T09:50:23;98839.63;;;22.03;100.00
12666;BME280;58531;59.050;17.416;2023-08-07T09:52:52;98835.56;;;22.12;100.00
12666;BME280;58531;59.050;17.416;2023-08-07T09:55:21;98837.75;;;22.13;100.00
12666;BME280;58531;59.050;17.416;2023-08-07T09:57:49;98843.13;;;21.96;100.00
12666;BME280;58531;59.050;17.416;2023-08-07T10:00:17;98835.22;;;21.91;100.00
12666;BME280;58531;59.050;17.416;2023-08-07T10:02:46;98833.03;;;21.89;100.00
12666;BME280;58531;59.050;17.416;2023-08-07T10:05:13;98832.94;;;22.04;100.00
12666;BME280;58531;59.050;17.416;2023-08-07T10:07:40;98834.22;;;22.20;100.00
12666;BME280;58531;59.050;17.416;2023-08-07T10:10:08;98840.56;;;22.23;100.00
12666;BME280;58531;59.050;17.416;2023-08-07T10:12:37;98838.38;;;22.21;100.00
12666;BME280;58531;59.050;17.416;2023-08-07T10:15:08;98841.78;;;22.29;100.00
12666;BME280;58531;59.050;17.416;2023-08-07T10:17:36;98841.28;;;21.99;100.00
12666;BME280;58531;59.050;17.416;2023-08-07T10:20:04;98838.38;;;21.72;100.00
12666;BME280;58531;59.050;17.416;2023-08-07T10:22:38;98836.69;;;21.52;100.00
12666;BME280;58531;59.050;17.416;2023-08-07T10:25:06;98844.84;;;21.45;100.00
12666;BME280;58531;59.050;17.416;2023-08-07T10:27:36;98834.78;;;21.31;100.00
12666;BME280;58531;59.050;17.416;2023-08-07T10:30:07;98842.06;;;21.28;100.00
12666;BME280;58531;59.050;17.416;2023-08-07T10:32:36;98843.84;;;21.26;100.00
12666;BME280;58531;59.050;17.416;2023-08-07T10:35:04;98855.47;;;21.26;100.00
12666;BME280;58531;59.050;17.416;2023-08-07T10:37:42;98857.44;;;21.26;100.00
12666;BME280;58531;59.050;17.416;2023-08-07T10:40:10;98870.53;;;21.12;100.00
12666;BME280;58531;59.050;17.416;2023-08-07T10:42:59;98864.94;;;21.03;100.00
12666;BME280;58531;59.050;17.416;2023-08-07T10:45:28;98873.09;;;21.03;100.00
12666;BME280;58531;59.050;17.416;2023-08-07T10:48:06;98875.06;;;21.10;100.00
12666;BME280;58531;59.050;17.416;2023-08-07T10:50:34;98885.53;;;21.13;100.00
12666;BME280;58531;59.050;17.416;2023-08-07T10:53:02;98876.34;;;21.09;100.00
12666;BME280;58531;59.050;17.416;2023-08-07T10:55:42;98877.97;;;21.12;100.00
12666;BME280;58531;59.050;17.416;2023-08-07T10:58:21;98882.78;;;21.21;100.00
12666;BME280;58531;59.050;17.416;2023-08-07T11:00:51;98864.53;;;21.21;100.00
12666;BME280;58531;59.050;17.416;2023-08-07T11:03:26;98853.16;;;21.47;100.00
12666;BME280;58531;59.050;17.416;2023-08-07T11:05:53;98865.88;;;21.84;100.00
12666;BME280;58531;59.050;17.416;2023-08-07T11:08:22;98866.94;;;22.13;100.00
12666;BME280;58531;59.050;17.416;2023-08-07T11:10:51;98863.97;;;22.18;100.00
12666;BME280;58531;59.050;17.416;2023-08-07T11:13:18;98846.09;;;22.32;100.00
12666;BME280;58531;59.050;17.416;2023-08-07T11:15:46;98838.50;;;22.72;100.00
12666;BME280;58531;59.050;17.416;2023-08-07T11:18:15;98850.09;;;23.06;100.00
12666;BME280;58531;59.050;17.416;2023-08-07T11:20:42;98845.78;;;23.37;100.00
12666;BME280;58531;59.050;17.416;2023-08-07T11:23:09;98842.59;;;23.58;100.00
12666;BME280;58531;59.050;17.416;2023-08-07T11:25:36;98851.53;;;23.68;100.00
12666;BME280;58531;59.050;17.416;2023-08-07T11:28:04;98864.47;;;23.77;100.00
12666;BME280;58531;59.050;17.416;2023-08-07T11:30:31;98855.88;;;23.71;100.00
12666;BME280;58531;59.050;17.416;2023-08-07T11:32:57;98858.13;;;23.65;100.00
12666;BME280;58531;59.050;17.416;2023-08-07T11:35:26;98859.25;;;23.62;100.00
12666;BME280;58531;59.050;17.416;2023-08-07T11:37:53;98860.59;;;23.27;100.00
12666;BME280;58531;59.050;17.416;2023-08-07T11:40:20;98854.34;;;23.00;100.00
12666;BME280;58531;59.050;17.416;2023-08-07T11:42:47;98852.25;;;23.25;100.00
12666;BME280;58531;59.050;17.416;2023-08-07T11:45:14;98857.22;;;23.36;100.00
12666;BME280;58531;59.050;17.416;2023-08-07T11:47:41;98851.56;;;23.24;100.00
12666;BME280;58531;59.050;17.416;2023-08-07T11:50:09;98845.38;;;23.07;100.00
12666;BME280;58531;59.050;17.416;2023-08-07T11:52:38;98839.16;;;22.97;100.00
12666;BME280;58531;59.050;17.416;2023-08-07T11:55:06;98830.50;;;23.08;100.00
12666;BME280;58531;59.050;17.416;2023-08-07T11:57:37;98827.16;;;23.17;100.00
12666;BME280;58531;59.050;17.416;2023-08-07T12:00:06;98819.66;;;23.00;100.00
12666;BME280;58531;59.050;17.416;2023-08-07T12:02:41;98810.59;;;23.32;100.00
12666;BME280;58531;59.050;17.416;2023-08-07T12:05:09;98795.22;;;23.53;100.00
12666;BME280;58531;59.050;17.416;2023-08-07T12:07:39;98812.16;;;23.52;100.00
12666;BME280;58531;59.050;17.416;2023-08-07T12:10:07;98820.78;;;23.58;100.00
12666;BME280;58531;59.050;17.416;2023-08-07T12:12:38;98837.03;;;23.39;100.00
12666;BME280;58531;59.050;17.416;2023-08-07T12:15:07;98828.47;;;23.25;100.00
12666;BME280;58531;59.050;17.416;2023-08-07T12:17:35;98839.31;;;22.99;100.00
12666;BME280;58531;59.050;17.416;2023-08-07T12:20:04;98850.59;;;23.12;100.00
12666;BME280;58531;59.050;17.416;2023-08-07T12:22:33;98854.84;;;23.23;98.05
12666;BME280;58531;59.050;17.416;2023-08-07T12:25:04;98845.31;;;23.14;98.00
12666;BME280;58531;59.050;17.416;2023-08-07T12:27:31;98848.94;;;23.17;98.88
12666;BME280;58531;59.050;17.416;2023-08-07T12:29:58;98840.25;;;22.77;98.67
12666;BME280;58531;59.050;17.416;2023-08-07T12:32:25;98842.66;;;22.90;100.00
12666;BME280;58531;59.050;17.416;2023-08-07T12:34:53;98857.97;;;22.85;98.71
12666;BME280;58531;59.050;17.416;2023-08-07T12:37:20;98854.53;;;23.02;100.00
12666;BME280;58531;59.050;17.416;2023-08-07T12:39:48;98839.69;;;23.29;98.43
12666;BME280;58531;59.050;17.416;2023-08-07T12:42:16;98813.78;;;23.38;95.45
12666;BME280;58531;59.050;17.416;2023-08-07T12:44:43;98795.91;;;23.18;92.54